Time;durP1;ratioP1;P1;durP2;ratioP2;P2;SDS_P1;SDS_P2;PMS_P1;PMS_P2;Temp;Humidity;BMP_temperature;BMP_pressure;BME280_temperature;BME280_humidity;BME280_pressure;Samples;Min_cycle;Max_cycle;Signal;HPM_P1;HPM_P2
2024/01/01 00:01:12;;;;;;;15.90;4.18;;;;;;;7.21;97.67;99783.13;5029670;28;20029;-60
2024/01/01 00:03:38;;;;;;;11.60;3.35;;;;;;;7.27;95.67;99799.44;5033627;28;20386;-60
2024/01/01 00:06:03;;;;;;;8.48;2.65;;;;;;;7.21;96.01;99812.16;5001203;28;20464;-60
2024/01/01 00:08:29;;;;;;;10.57;3.20;;;;;;;7.18;96.61;99801.84;5026837;28;20108;-60
2024/01/01 00:10:54;;;;;;;8.77;2.70;;;;;;;7.14;96.45;99831.25;5034685;28;20031;-59
2024/01/01 00:13:19;;;;;;;6.85;2.60;;;;;;;7.08;96.26;99803.53;5030410;28;20040;-60
2024/01/01 00:15:45;;;;;;;7.18;2.40;;;;;;;7.00;96.42;99821.78;5032544;28;20017;-60
2024/01/01 00:18:10;;;;;;;4.07;1.98;;;;;;;6.91;97.30;99817.19;5033612;28;20045;-60
2024/01/01 00:20:35;;;;;;;5.40;2.25;;;;;;;6.83;98.03;99818.63;5027998;28;20399;-60
2024/01/01 00:23:00;;;;;;;6.20;2.28;;;;;;;6.77;98.73;99821.75;5026665;28;20136;-60
2024/01/01 00:25:26;;;;;;;9.05;2.42;;;;;;;6.73;100.00;99811.53;5034150;28;20132;-60
2024/01/01 00:27:52;;;;;;;5.68;2.60;;;;;;;6.65;100.00;99801.59;5029914;28;20025;-60
2024/01/01 00:30:17;;;;;;;7.97;2.55;;;;;;;6.61;100.00;99823.88;5033466;28;20403;-60
2024/01/01 00:32:43;;;;;;;6.65;3.08;;;;;;;6.52;100.00;99819.31;5032103;28;20017;-60
2024/01/01 00:35:08;;;;;;;6.85;2.85;;;;;;;6.48;100.00;99813.44;5032254;28;20471;-60
2024/01/01 00:37:33;;;;;;;8.13;2.95;;;;;;;6.45;100.00;99813.66;5032123;28;20037;-60
2024/01/01 00:39:59;;;;;;;10.88;4.40;;;;;;;6.39;100.00;99824.69;5033736;28;20087;-60
2024/01/01 00:42:25;;;;;;;8.75;4.65;;;;;;;6.35;100.00;99816.16;5037092;28;20024;-60
2024/01/01 00:44:51;;;;;;;7.32;3.10;;;;;;;6.32;100.00;99842.75;5029746;28;20025;-60
2024/01/01 00:47:16;;;;;;;8.02;3.65;;;;;;;6.26;100.00;99822.97;5032518;28;20049;-60
2024/01/01 00:49:41;;;;;;;9.60;3.30;;;;;;;6.25;100.00;99829.19;5033841;28;21097;-59
2024/01/01 00:52:07;;;;;;;7.88;3.10;;;;;;;6.15;100.00;99808.91;5033029;28;20038;-60
2024/01/01 00:54:32;;;;;;;7.15;2.92;;;;;;;6.11;100.00;99810.91;5038446;28;20451;-60
2024/01/01 00:56:58;;;;;;;5.10;2.70;;;;;;;6.05;100.00;99804.31;5037256;28;20033;-58
2024/01/01 00:59:24;;;;;;;7.13;3.10;;;;;;;5.99;100.00;99802.13;5035579;28;20026;-59
2024/01/01 01:01:50;;;;;;;9.95;3.22;;;;;;;5.96;100.00;99799.72;5038613;28;20504;-60
2024/01/01 01:04:15;;;;;;;7.53;3.28;;;;;;;5.91;100.00;99805.31;5037140;28;20033;-60
2024/01/01 01:06:41;;;;;;;5.57;3.03;;;;;;;5.88;100.00;99802.91;5038418;28;20482;-59
2024/01/01 01:09:06;;;;;;;6.47;2.67;;;;;;;5.88;100.00;99808.19;5041547;28;20034;-59
2024/01/01 01:11:32;;;;;;;7.90;2.97;;;;;;;5.85;100.00;99816.31;5033958;28;20025;-58
2024/01/01 01:13:57;;;;;;;8.85;3.70;;;;;;;5.82;100.00;99826.22;5040846;28;20048;-59
2024/01/01 01:16:23;;;;;;;7.55;3.38;;;;;;;5.84;100.00;99813.78;5031270;28;20048;-60
2024/01/01 01:18:48;;;;;;;8.18;3.15;;;;;;;5.84;100.00;99816.41;5035218;28;20037;-60
2024/01/01 01:21:14;;;;;;;6.60;3.22;;;;;;;5.84;100.00;99811.97;5035921;28;20091;-60
2024/01/01 01:23:40;;;;;;;6.93;3.03;;;;;;;5.86;100.00;99819.75;5039291;28;20036;-60
2024/01/01 01:26:05;;;;;;;7.43;3.08;;;;;;;5.87;100.00;99813.56;5038284;28;20032;-60
2024/01/01 01:28:30;;;;;;;8.65;3.63;;;;;;;5.87;100.00;99826.72;5029459;28;20040;-59
2024/01/01 01:30:56;;;;;;;7.93;2.90;;;;;;;5.90;100.00;99831.78;5033908;28;20065;-59
2024/01/01 01:33:21;;;;;;;11.30;3.35;;;;;;;5.90;100.00;99823.88;5041053;28;20086;-59
2024/01/01 01:35:46;;;;;;;11.13;2.70;;;;;;;5.93;100.00;99827.13;5034641;28;20482;-60
2024/01/01 01:38:12;;;;;;;8.45;2.75;;;;;;;5.89;100.00;99814.28;5035622;28;20025;-60
2024/01/01 01:40:37;;;;;;;10.85;3.17;;;;;;;5.89;100.00;99816.91;5035469;28;20051;-60
2024/01/01 01:43:02;;;;;;;11.27;3.20;;;;;;;5.86;100.00;99812.72;5033555;28;20033;-60
2024/01/01 01:45:27;;;;;;;10.57;2.90;;;;;;;5.86;100.00;99818.00;5035590;28;20094;-60
2024/01/01 01:47:53;;;;;;;10.95;3.15;;;;;;;5.85;100.00;99815.47;5035254;28;20036;-59
2024/01/01 01:50:20;;;;;;;11.27;3.30;;;;;;;5.81;100.00;99821.91;5037296;28;20017;-60
2024/01/01 01:52:47;;;;;;;5.97;2.70;;;;;;;5.81;100.00;99821.91;5033548;28;20025;-60
2024/01/01 01:55:14;;;;;;;11.52;3.05;;;;;;;5.79;100.00;99821.19;5037304;28;20068;-60
2024/01/01 01:57:41;;;;;;;11.15;3.20;;;;;;;5.80;100.00;99812.34;5035765;28;20025;-60
2024/01/01 02:00:07;;;;;;;9.18;3.00;;;;;;;5.80;100.00;99812.34;5036098;28;20086;-60
2024/01/01 02:02:37;;;;;;;15.45;3.78;;;;;;;5.82;100.00;99821.78;5035362;28;20112;-60
2024/01/01 02:05:04;;;;;;;8.20;3.17;;;;;;;5.88;100.00;99825.78;5041806;28;20036;-59
2024/01/01 02:07:30;;;;;;;11.77;3.25;;;;;;;5.88;100.00;99812.63;5038357;28;20038;-59
2024/01/01 02:09:55;;;;;;;13.65;3.47;;;;;;;5.91;100.00;99820.28;5035573;28;20113;-60
2024/01/01 02:12:21;;;;;;;12.52;3.35;;;;;;;5.95;100.00;99818.28;5037817;28;20021;-60
2024/01/01 02:14:46;;;;;;;10.18;3.50;;;;;;;5.96;100.00;99825.22;5035296;28;20512;-60
2024/01/01 02:17:11;;;;;;;9.48;2.90;;;;;;;5.98;100.00;99825.97;5038822;28;20047;-60
2024/01/01 02:19:37;;;;;;;10.10;2.75;;;;;;;6.00;100.00;99824.06;5030351;28;20056;-59
2024/01/01 02:22:02;;;;;;;11.93;2.78;;;;;;;6.02;100.00;99825.63;5036354;28;20380;-60
2024/01/01 02:24:27;;;;;;;13.05;3.30;;;;;;;6.01;100.00;99829.22;5037340;28;20026;-59
2024/01/01 02:26:53;;;;;;;12.70;3.38;;;;;;;6.05;100.00;99832.47;5039434;28;20083;-60
2024/01/01 02:29:18;;;;;;;10.65;3.03;;;;;;;6.05;100.00;99835.94;5037859;28;20017;-60
2024/01/01 02:31:45;;;;;;;9.57;2.70;;;;;;;6.04;100.00;99836.88;5035588;28;20025;-60
2024/01/01 02:34:10;;;;;;;13.77;3.15;;;;;;;6.04;100.00;99843.97;5037312;28;20117;-59
2024/01/01 02:36:38;;;;;;;15.30;3.25;;;;;;;6.02;100.00;99841.44;5039843;28;20060;-60
2024/01/01 02:39:05;;;;;;;14.05;3.40;;;;;;;6.04;100.00;99852.72;5034996;28;20125;-61
2024/01/01 02:41:33;;;;;;;12.32;2.78;;;;;;;6.02;100.00;99844.06;5034781;28;20051;-60
2024/01/01 02:43:58;;;;;;;12.45;3.58;;;;;;;6.05;100.00;99851.75;5034920;28;20483;-60
2024/01/01 02:46:23;;;;;;;12.35;3.33;;;;;;;6.04;100.00;99865.88;5037736;28;20029;-60
2024/01/01 02:48:48;;;;;;;10.80;2.80;;;;;;;6.04;100.00;99857.97;5037645;28;20029;-60
2024/01/01 02:51:14;;;;;;;13.23;3.10;;;;;;;6.02;100.00;99859.06;5034902;28;20108;-61
2024/01/01 02:53:39;;;;;;;15.27;3.67;;;;;;;6.02;100.00;99862.53;5033442;28;20878;-60
2024/01/01 02:56:04;;;;;;;12.63;3.25;;;;;;;6.01;100.00;99865.28;5034693;28;20025;-60
2024/01/01 02:58:30;;;;;;;10.40;2.65;;;;;;;6.01;100.00;99865.28;5037311;28;20033;-60
2024/01/01 03:00:55;;;;;;;16.08;3.60;;;;;;;6.02;100.00;99861.69;5036113;28;20487;-60
2024/01/01 03:03:20;;;;;;;14.55;3.53;;;;;;;6.01;100.00;99871.41;5034950;28;20341;-60
2024/01/01 03:05:46;;;;;;;14.55;3.70;;;;;;;6.02;100.00;99851.16;5038274;28;20037;-59
2024/01/01 03:08:11;;;;;;;11.88;3.10;;;;;;;6.01;100.00;99863.50;5038016;28;20033;-59
2024/01/01 03:10:37;;;;;;;12.73;3.15;;;;;;;6.02;100.00;99854.63;5041018;28;20025;-59
2024/01/01 03:13:02;;;;;;;15.95;3.17;;;;;;;6.01;100.00;99874.03;5031883;28;20049;-59
2024/01/01 03:15:28;;;;;;;17.70;4.13;;;;;;;6.00;100.00;99860.97;5036781;28;20032;-59
2024/01/01 03:17:54;;;;;;;16.15;3.45;;;;;;;5.98;100.00;99876.03;5039319;28;20053;-60
2024/01/01 03:20:19;;;;;;;12.13;3.38;;;;;;;5.97;100.00;99858.56;5038893;28;20122;-60
2024/01/01 03:22:45;;;;;;;10.07;2.72;;;;;;;5.97;100.00;99862.03;5037721;28;20120;-60
2024/01/01 03:25:11;;;;;;;12.73;3.17;;;;;;;5.92;100.00;99864.13;5036631;28;20048;-59
2024/01/01 03:27:36;;;;;;;18.65;3.88;;;;;;;5.91;100.00;99870.34;5035369;28;20091;-60
2024/01/01 03:30:05;;;;;;;14.90;3.60;;;;;;;5.93;100.00;99885.09;5038144;28;20033;-60
2024/01/01 03:32:34;;;;;;;19.05;3.83;;;;;;;5.92;100.00;99880.78;5028218;28;20030;-58
2024/01/01 03:34:59;;;;;;;16.40;3.40;;;;;;;5.93;100.00;99879.84;5039370;28;20021;-58
2024/01/01 03:37:25;;;;;;;18.30;3.85;;;;;;;5.96;100.00;99881.41;5041299;28;20064;-60
2024/01/01 03:39:50;;;;;;;15.38;3.30;;;;;;;5.94;100.00;99875.38;5034116;28;20064;-60
2024/01/01 03:42:15;;;;;;;15.30;3.55;;;;;;;5.95;100.00;99876.25;5034509;28;20611;-60
2024/01/01 03:44:41;;;;;;;16.13;3.50;;;;;;;5.92;100.00;99893.13;5035186;28;20047;-60
2024/01/01 03:47:06;;;;;;;16.33;3.08;;;;;;;5.90;100.00;99884.50;5032897;28;20389;-59
2024/01/01 03:49:32;;;;;;;13.13;3.28;;;;;;;5.93;100.00;99881.63;5039381;28;20025;-60
2024/01/01 03:51:57;;;;;;;18.55;3.33;;;;;;;5.91;100.00;99883.53;5035471;28;20105;-60
2024/01/01 03:54:22;;;;;;;14.73;3.17;;;;;;;5.93;100.00;99881.63;5036128;28;20532;-60
2024/01/01 03:56:47;;;;;;;17.63;3.45;;;;;;;5.95;100.00;99887.63;5016800;28;20429;-61
2024/01/01 03:59:13;;;;;;;18.17;3.67;;;;;;;5.91;100.00;99879.09;5033203;28;20112;-60
2024/01/01 04:01:38;;;;;;;12.73;3.00;;;;;;;5.93;100.00;99882.47;5033523;28;20521;-60
2024/01/01 04:04:05;;;;;;;13.48;3.13;;;;;;;5.94;100.00;99891.22;5038429;28;20122;-60
2024/01/01 04:06:31;;;;;;;12.27;2.88;;;;;;;5.93;100.00;99885.09;5037211;28;20036;-60
2024/01/01 04:08:56;;;;;;;14.73;3.38;;;;;;;5.95;100.00;99889.44;5034837;28;20029;-60
2024/01/01 04:11:21;;;;;;;10.93;3.10;;;;;;;5.96;100.00;99894.59;5034964;28;20040;-60
2024/01/01 04:13:47;;;;;;;9.82;2.72;;;;;;;5.95;100.00;99892.91;5036965;28;20028;-60
2024/01/01 04:16:12;;;;;;;13.73;3.28;;;;;;;5.96;100.00;99891.97;5032927;28;20033;-60
2024/01/01 04:18:39;;;;;;;13.50;2.97;;;;;;;5.93;100.00;99894.81;5037508;28;20489;-60
2024/01/01 04:21:04;;;;;;;11.95;2.75;;;;;;;5.92;100.00;99883.41;5039086;28;20032;-59
2024/01/01 04:23:30;;;;;;;11.25;3.08;;;;;;;5.96;100.00;99897.22;5037541;28;20035;-60
2024/01/01 04:25:55;;;;;;;13.93;2.70;;;;;;;5.92;100.00;99904.50;5034852;28;20025;-60
2024/01/01 04:28:20;;;;;;;11.80;3.63;;;;;;;5.93;100.00;99895.66;5033302;28;20026;-60
2024/01/01 04:30:45;;;;;;;9.38;2.72;;;;;;;5.96;100.00;99914.81;5037291;28;20022;-60
2024/01/01 04:33:11;;;;;;;6.53;2.35;;;;;;;5.94;100.00;99901.75;5036755;28;20482;-60
2024/01/01 04:35:36;;;;;;;10.07;2.53;;;;;;;5.95;100.00;99894.72;5031938;28;20037;-60
2024/01/01 04:38:02;;;;;;;12.10;3.10;;;;;;;5.96;100.00;99901.63;5035573;28;20029;-60
2024/01/01 04:40:27;;;;;;;12.32;3.20;;;;;;;5.96;100.00;99893.72;5033937;28;20053;-60
2024/01/01 04:42:53;;;;;;;9.82;2.70;;;;;;;5.98;100.00;99894.50;5032871;28;20087;-60
2024/01/01 04:45:18;;;;;;;12.25;3.10;;;;;;;5.98;100.00;99902.41;5032372;28;20032;-60
2024/01/01 04:47:44;;;;;;;15.07;3.00;;;;;;;5.97;100.00;99903.38;5032720;28;20025;-60
2024/01/01 04:50:10;;;;;;;12.50;2.75;;;;;;;5.97;100.00;99893.66;5012042;28;20612;-59
2024/01/01 04:52:35;;;;;;;15.15;3.15;;;;;;;5.99;100.00;99907.56;5036057;28;20034;-60
2024/01/01 04:55:00;;;;;;;12.55;2.70;;;;;;;5.98;100.00;99921.72;5034896;28;20029;-60
2024/01/01 04:57:26;;;;;;;11.68;2.50;;;;;;;5.99;100.00;99915.47;5033855;28;20029;-60
2024/01/01 04:59:52;;;;;;;10.73;3.00;;;;;;;5.98;100.00;99911.16;5035459;28;20032;-59
2024/01/01 05:02:17;;;;;;;14.70;3.30;;;;;;;5.99;100.00;99923.38;5030786;28;20033;-59
2024/01/01 05:04:42;;;;;;;17.13;3.72;;;;;;;5.97;100.00;99919.19;5031812;28;20030;-60
2024/01/01 05:07:08;;;;;;;10.38;2.53;;;;;;;5.96;100.00;99914.81;5033346;28;20108;-59
2024/01/01 05:09:33;;;;;;;9.60;2.65;;;;;;;5.96;100.00;99920.94;5033493;28;20033;-59
2024/01/01 05:11:58;;;;;;;10.80;2.60;;;;;;;5.97;100.00;99920.00;5034222;28;20033;-59
2024/01/01 05:14:23;;;;;;;17.70;3.30;;;;;;;5.95;100.00;99915.78;5020281;28;20116;-60
2024/01/01 05:16:50;;;;;;;8.23;2.75;;;;;;;5.96;100.00;99926.22;5033554;28;20034;-59
2024/01/01 05:19:15;;;;;;;15.52;3.30;;;;;;;5.94;100.00;99922.84;5034606;28;20041;-60
2024/01/01 05:21:40;;;;;;;9.80;2.90;;;;;;;5.92;100.00;99935.28;5029813;28;20107;-60
2024/01/01 05:24:06;;;;;;;12.15;2.38;;;;;;;5.98;100.00;99931.38;5032135;28;20026;-60
2024/01/01 05:26:31;;;;;;;9.52;3.13;;;;;;;5.99;100.00;99949.72;5035353;28;20475;-60
2024/01/01 05:28:56;;;;;;;13.40;2.80;;;;;;;5.98;100.00;99944.56;5031258;28;20030;-59
2024/01/01 05:31:22;;;;;;;12.15;2.92;;;;;;;5.99;100.00;99946.25;5034228;28;20029;-60
2024/01/01 05:33:48;;;;;;;9.35;2.55;;;;;;;5.99;100.00;99948.91;5031378;28;20033;-60
2024/01/01 05:36:13;;;;;;;7.63;2.45;;;;;;;5.98;100.00;99958.63;5031285;28;20074;-59
2024/01/01 05:38:39;;;;;;;7.53;2.28;;;;;;;5.98;100.00;99960.38;5039150;28;20017;-59
2024/01/01 05:41:05;;;;;;;10.90;2.60;;;;;;;5.99;100.00;99957.63;5033431;28;20063;-60
2024/01/01 05:43:31;;;;;;;8.40;2.17;;;;;;;6.00;100.00;99961.97;5041046;28;20430;-60
2024/01/01 05:45:57;;;;;;;10.80;2.88;;;;;;;6.01;100.00;99961.03;5039505;28;20021;-58
2024/01/01 05:48:22;;;;;;;8.93;2.50;;;;;;;6.00;100.00;99963.78;5033521;28;20071;-60
2024/01/01 05:50:47;;;;;;;13.13;2.67;;;;;;;5.98;100.00;99970.94;5035773;28;20045;-59
2024/01/01 05:53:12;;;;;;;11.75;2.25;;;;;;;5.94;100.00;99972.91;5033533;28;20485;-60
2024/01/01 05:55:38;;;;;;;7.47;2.38;;;;;;;5.95;100.00;99969.34;5034673;28;20033;-59
2024/01/01 05:58:03;;;;;;;10.75;2.92;;;;;;;5.89;100.00;99977.66;5040811;28;20029;-60
2024/01/01 06:00:29;;;;;;;10.27;2.42;;;;;;;5.86;100.00;99977.88;5034681;28;20040;-59
2024/01/01 06:02:54;;;;;;;8.85;2.63;;;;;;;5.84;100.00;99971.88;5042147;28;20095;-60
2024/01/01 06:05:19;;;;;;;11.35;2.85;;;;;;;5.82;100.00;99972.00;5034210;28;20030;-60
2024/01/01 06:07:45;;;;;;;13.70;2.85;;;;;;;5.81;100.00;99975.59;5029961;28;20115;-59
2024/01/01 06:10:10;;;;;;;13.05;2.53;;;;;;;5.80;100.00;99991.50;5029554;28;20021;-60
2024/01/01 06:12:35;;;;;;;14.00;2.80;;;;;;;5.79;100.00;99984.53;5036130;28;20083;-59
2024/01/01 06:15:01;;;;;;;10.90;2.30;;;;;;;5.80;100.00;99988.88;5038434;28;20052;-59
2024/01/01 06:17:26;;;;;;;10.27;2.50;;;;;;;5.80;100.00;99994.16;5036563;28;20045;-60
2024/01/01 06:19:51;;;;;;;11.13;2.67;;;;;;;5.80;100.00;99992.34;5037078;28;20033;-60
2024/01/01 06:22:16;;;;;;;9.55;2.80;;;;;;;5.80;100.00;99986.25;5034487;28;20116;-59
2024/01/01 06:24:42;;;;;;;12.75;2.50;;;;;;;5.80;100.00;99997.63;5033729;28;20079;-60
2024/01/01 06:27:07;;;;;;;11.50;2.60;;;;;;;5.79;100.00;100003.00;5039167;28;20364;-60
2024/01/01 06:29:32;;;;;;;12.35;3.08;;;;;;;5.80;100.00;100004.69;5041050;28;20029;-60
2024/01/01 06:31:58;;;;;;;9.40;2.22;;;;;;;5.77;100.00;100018.06;5040092;28;20123;-59
2024/01/01 06:34:23;;;;;;;11.30;2.90;;;;;;;5.75;100.00;100019.00;5038325;28;20068;-60
2024/01/01 06:36:48;;;;;;;9.82;3.10;;;;;;;5.74;100.00;100037.56;5038359;28;20036;-60
2024/01/01 06:39:14;;;;;;;12.50;2.75;;;;;;;5.72;100.00;100040.31;5037451;28;20105;-59
2024/01/01 06:41:40;;;;;;;15.27;2.65;;;;;;;5.74;100.00;100037.56;5036654;28;20104;-58
2024/01/01 06:44:05;;;;;;;12.80;2.58;;;;;;;5.71;100.00;100041.28;5037989;28;20113;-59
2024/01/01 06:46:30;;;;;;;12.52;3.13;;;;;;;5.73;100.00;100046.44;5030758;28;20112;-59
2024/01/01 06:48:56;;;;;;;9.98;2.85;;;;;;;5.70;100.00;100050.09;5030931;28;20082;-58
2024/01/01 06:51:21;;;;;;;15.13;2.95;;;;;;;5.73;100.00;100056.97;5031738;28;20092;-60
2024/01/01 06:53:46;;;;;;;9.07;2.45;;;;;;;5.74;100.00;100063.91;5035793;28;20044;-59
2024/01/01 06:56:11;;;;;;;10.15;2.22;;;;;;;5.75;100.00;100057.69;5036462;28;20044;-59
2024/01/01 06:58:37;;;;;;;11.80;2.83;;;;;;;5.75;100.00;100068.25;5034501;28;20060;-59
2024/01/01 07:01:02;;;;;;;15.57;3.10;;;;;;;5.75;100.00;100069.06;5031683;28;20036;-61
2024/01/01 07:03:28;;;;;;;10.18;3.22;;;;;;;5.80;100.00;100067.94;5032386;28;20026;-58
2024/01/01 07:05:53;;;;;;;12.68;3.15;;;;;;;5.80;100.00;100071.41;5031396;28;20026;-59
2024/01/01 07:08:18;;;;;;;11.25;2.95;;;;;;;5.80;100.00;100081.94;5032400;28;20112;-59
2024/01/01 07:10:44;;;;;;;9.63;2.90;;;;;;;5.79;100.00;100082.03;5034103;28;20024;-59
2024/01/01 07:13:09;;;;;;;12.25;2.65;;;;;;;5.77;100.00;100091.84;5031857;28;20417;-59
2024/01/01 07:15:34;;;;;;;12.35;2.65;;;;;;;5.77;100.00;100091.84;5029415;28;20033;-59
2024/01/01 07:17:59;;;;;;;9.05;2.47;;;;;;;5.79;100.00;100092.59;5030872;28;20083;-59
2024/01/01 07:20:25;;;;;;;10.63;3.20;;;;;;;5.80;100.00;100096.91;5032271;28;20021;-60
2024/01/01 07:22:50;;;;;;;12.00;2.65;;;;;;;5.76;100.00;100098.91;5032680;28;20034;-60
2024/01/01 07:25:16;;;;;;;14.05;2.90;;;;;;;5.75;100.00;100103.34;5036160;28;20499;-60
2024/01/01 07:27:41;;;;;;;10.18;2.72;;;;;;;5.74;100.00;100120.09;5033959;28;20136;-59
2024/01/01 07:30:07;;;;;;;9.23;2.70;;;;;;;5.74;100.00;100108.69;5035277;28;20512;-60
2024/01/01 07:32:32;;;;;;;9.25;2.80;;;;;;;5.73;100.00;100113.13;5036962;28;20029;-60
2024/01/01 07:34:57;;;;;;;9.40;2.58;;;;;;;5.74;100.00;100103.44;5035118;28;20022;-59
2024/01/01 07:37:23;;;;;;;8.00;2.35;;;;;;;5.70;100.00;100110.72;5038161;28;20414;-60
2024/01/01 07:39:48;;;;;;;8.68;2.60;;;;;;;5.70;100.00;100110.72;5033689;28;20078;-57
2024/01/01 07:42:15;;;;;;;10.80;3.05;;;;;;;5.70;100.00;100118.63;5030936;28;20048;-59
2024/01/01 07:44:41;;;;;;;9.35;2.55;;;;;;;5.69;100.00;100119.53;5031983;28;20029;-58
2024/01/01 07:47:08;;;;;;;13.15;3.22;;;;;;;5.68;100.00;100117.88;5034803;28;20035;-59
2024/01/01 07:49:33;;;;;;;12.38;2.90;;;;;;;5.68;100.00;100120.50;5033543;28;20099;-56
2024/01/01 07:51:58;;;;;;;10.05;2.70;;;;;;;5.66;100.00;100114.50;5030136;28;20490;-58
2024/01/01 07:54:24;;;;;;;8.90;3.25;;;;;;;5.64;100.00;100124.28;5031443;28;20117;-58
2024/01/01 07:56:49;;;;;;;9.07;2.63;;;;;;;5.61;100.00;100129.75;5031323;28;20021;-57
2024/01/01 07:59:15;;;;;;;10.60;2.60;;;;;;;5.62;100.00;100131.47;5037637;28;20207;-56
2024/01/01 08:01:40;;;;;;;10.02;2.65;;;;;;;5.59;100.00;100144.00;5032724;28;20030;-58
2024/01/01 08:04:07;;;;;;;10.65;2.95;;;;;;;5.58;100.00;100143.16;5030800;28;20079;-57
2024/01/01 08:06:32;;;;;;;16.13;3.75;;;;;;;5.57;100.00;100154.63;5038389;28;20022;-58
2024/01/01 08:08:57;;;;;;;12.80;3.03;;;;;;;5.57;100.00;100154.63;5029726;28;20040;-58
2024/01/01 08:11:22;;;;;;;8.23;2.38;;;;;;;5.54;100.00;100160.94;5035164;28;20446;-58
2024/01/01 08:13:48;;;;;;;10.05;2.65;;;;;;;5.55;100.00;100170.53;5036973;28;20029;-57
2024/01/01 08:16:14;;;;;;;8.20;2.58;;;;;;;5.54;100.00;100163.56;5029743;28;20541;-59
2024/01/01 08:18:40;;;;;;;12.35;2.78;;;;;;;5.56;100.00;100181.91;5037190;28;20053;-58
2024/01/01 08:21:05;;;;;;;14.45;2.97;;;;;;;5.55;100.00;100172.34;5033989;28;20029;-58
2024/01/01 08:23:31;;;;;;;12.45;3.20;;;;;;;5.58;100.00;100187.94;5031794;28;20100;-58
2024/01/01 08:25:57;;;;;;;13.60;3.00;;;;;;;5.59;100.00;100194.06;5036615;28;20057;-58
2024/01/01 08:28:22;;;;;;;9.80;2.78;;;;;;;5.60;100.00;100180.78;5031618;28;20061;-59
2024/01/01 08:30:48;;;;;;;13.30;2.70;;;;;;;5.61;100.00;100184.25;5035356;28;20029;-59
2024/01/01 08:33:14;;;;;;;12.38;3.00;;;;;;;5.63;100.00;100192.88;5033358;28;20044;-59
2024/01/01 08:35:40;;;;;;;13.77;3.03;;;;;;;5.63;100.00;100196.38;5032141;28;20025;-58
2024/01/01 08:38:05;;;;;;;13.95;3.13;;;;;;;5.66;100.00;100212.00;5030308;28;20505;-58
2024/01/01 08:40:30;;;;;;;12.48;2.90;;;;;;;5.69;100.00;100216.19;5036513;28;20017;-59
2024/01/01 08:42:56;;;;;;;10.25;2.65;;;;;;;5.72;100.00;100205.47;5033531;28;20064;-58
2024/01/01 08:45:21;;;;;;;12.52;2.92;;;;;;;5.73;100.00;100213.25;5035579;28;20034;-58
2024/01/01 08:47:46;;;;;;;12.32;3.03;;;;;;;5.74;100.00;100214.97;5031096;28;20057;-59
2024/01/01 08:50:13;;;;;;;15.38;3.55;;;;;;;5.75;100.00;100215.81;5031709;28;20026;-58
2024/01/01 08:52:39;;;;;;;14.20;3.13;;;;;;;5.77;100.00;100231.50;5035390;28;20033;-57
2024/01/01 08:55:05;;;;;;;9.40;2.85;;;;;;;5.77;100.00;100228.88;5031212;28;20421;-58
2024/01/01 08:57:30;;;;;;;12.30;3.50;;;;;;;5.79;100.00;100233.09;5031943;28;20025;-59
2024/01/01 08:59:55;;;;;;;11.25;3.00;;;;;;;5.80;100.00;100233.94;5031750;28;20018;-58
2024/01/01 09:02:21;;;;;;;15.02;3.08;;;;;;;5.81;100.00;100241.75;5027712;28;20038;-59
2024/01/01 09:04:46;;;;;;;10.45;2.90;;;;;;;5.83;100.00;100226.69;5035578;28;20047;-58
2024/01/01 09:07:11;;;;;;;9.38;2.60;;;;;;;5.84;100.00;100236.25;5034953;28;20029;-59
2024/01/01 09:09:37;;;;;;;9.18;2.78;;;;;;;5.84;100.00;100233.63;5030828;28;20029;-59
2024/01/01 09:12:02;;;;;;;15.15;3.13;;;;;;;5.87;100.00;100245.75;5036536;28;20029;-59
2024/01/01 09:14:28;;;;;;;14.90;3.30;;;;;;;5.87;100.00;100257.13;5034879;28;20120;-59
2024/01/01 09:16:53;;;;;;;10.05;2.72;;;;;;;5.89;100.00;100268.41;5039335;28;20565;-59
2024/01/01 09:19:18;;;;;;;13.18;2.55;;;;;;;5.90;100.00;100262.22;5035855;28;20024;-59
2024/01/01 09:21:44;;;;;;;15.35;3.55;;;;;;;5.91;100.00;100256.00;5040782;28;20545;-59
2024/01/01 09:24:09;;;;;;;14.18;2.70;;;;;;;5.92;100.00;100264.75;5014833;28;20034;-59
2024/01/01 09:26:35;;;;;;;10.88;2.58;;;;;;;5.91;100.00;100265.69;5038182;28;20219;-59
2024/01/01 09:29:01;;;;;;;13.75;2.97;;;;;;;5.90;100.00;100279.81;5033495;28;20030;-58
2024/01/01 09:31:27;;;;;;;15.80;2.85;;;;;;;5.88;100.00;100279.94;5035638;28;20049;-59
2024/01/01 09:33:54;;;;;;;12.30;3.20;;;;;;;5.88;100.00;100272.00;5036187;28;20056;-59
2024/01/01 09:36:19;;;;;;;12.35;3.47;;;;;;;5.91;100.00;100286.75;5039741;28;20060;-59
2024/01/01 09:38:45;;;;;;;14.02;2.80;;;;;;;5.92;100.00;100286.66;5041663;28;20067;-58
2024/01/01 09:41:11;;;;;;;14.70;3.03;;;;;;;5.91;100.00;100282.34;5040007;28;20017;-58
2024/01/01 09:43:37;;;;;;;13.48;2.88;;;;;;;5.92;100.00;100286.66;5026726;28;20720;-59
2024/01/01 09:46:02;;;;;;;11.57;3.45;;;;;;;5.95;100.00;100301.44;5035649;28;20071;-58
2024/01/01 09:48:27;;;;;;;18.98;3.30;;;;;;;5.96;100.00;100307.56;5041690;28;20378;-58
2024/01/01 09:50:53;;;;;;;10.93;2.90;;;;;;;5.97;100.00;100306.66;5036374;28;20478;-58
2024/01/01 09:53:18;;;;;;;10.35;2.95;;;;;;;5.99;100.00;100307.41;5040639;28;20033;-58
2024/01/01 09:55:51;;;;;;;14.32;3.30;;;;;;;5.99;100.00;100308.22;5034221;28;20136;-58
2024/01/01 09:58:16;;;;;;;14.82;3.75;;;;;;;6.02;100.00;100325.66;5038312;28;20021;-59
2024/01/01 10:00:42;;;;;;;16.50;3.78;;;;;;;6.03;100.00;100325.53;5038390;28;20394;-58
2024/01/01 10:03:10;;;;;;;18.45;3.90;;;;;;;6.04;100.00;100319.31;5039308;28;20391;-58
2024/01/01 10:05:36;;;;;;;12.80;3.30;;;;;;;6.07;100.00;100320.91;5035907;28;20029;-59
2024/01/01 10:08:11;;;;;;;15.00;3.25;;;;;;;6.10;100.00;100324.19;5034813;28;20025;-58
2024/01/01 10:10:38;;;;;;;13.55;2.97;;;;;;;6.13;100.00;100325.78;5039990;28;20028;-58
2024/01/01 10:13:09;;;;;;;11.65;2.80;;;;;;;6.15;100.00;100325.69;5036918;28;20479;-59
2024/01/01 10:15:38;;;;;;;16.60;3.25;;;;;;;6.15;100.00;100326.53;5021641;28;20025;-61
2024/01/01 10:18:12;;;;;;;11.90;3.13;;;;;;;6.16;100.00;100332.63;5035462;28;20125;-61
2024/01/01 10:20:38;;;;;;;14.55;3.10;;;;;;;6.17;100.00;100337.81;5041415;28;20390;-61
2024/01/01 10:23:25;;;;;;;12.88;3.00;;;;;;;6.23;100.00;100336.56;5037460;28;20032;-60
2024/01/01 10:26:07;;;;;;;13.25;3.28;;;;;;;6.28;100.00;100345.03;5035743;28;20036;-60
2024/01/01 10:28:33;;;;;;;15.45;3.10;;;;;;;6.32;100.00;100340.38;5038310;28;20052;-60
2024/01/01 10:31:00;;;;;;;12.77;3.38;;;;;;;6.35;100.00;100343.66;5036267;28;20072;-61
2024/01/01 10:33:28;;;;;;;12.20;3.15;;;;;;;6.42;100.00;100337.00;5034441;28;20026;-60
2024/01/01 10:35:54;;;;;;;15.25;3.65;;;;;;;6.50;100.00;100346.22;5025670;28;20467;-60
2024/01/01 10:38:20;;;;;;;12.13;3.58;;;;;;;6.54;100.00;100348.53;5032867;28;20059;-60
2024/01/01 10:40:46;;;;;;;13.65;3.65;;;;;;;6.58;100.00;100346.53;5029801;28;20030;-60
2024/01/01 10:43:12;;;;;;;17.40;3.80;;;;;;;6.59;100.00;100345.56;5035959;28;20418;-60
2024/01/01 10:45:38;;;;;;;17.25;3.95;;;;;;;6.62;100.00;100355.94;5035928;28;20052;-60
2024/01/01 10:48:06;;;;;;;12.02;3.17;;;;;;;6.63;100.00;100368.19;5033799;28;20441;-60
2024/01/01 10:50:35;;;;;;;17.60;4.00;;;;;;;6.63;100.00;100362.91;5029837;28;20056;-60
2024/01/01 10:53:47;;;;;;;18.23;3.40;;;;;;;6.66;100.00;100365.31;5031181;28;20586;-60
2024/01/01 10:56:39;;;;;;;15.57;3.65;;;;;;;6.67;100.00;100364.38;5002727;28;20045;-60
2024/01/01 10:59:22;;;;;;;14.15;3.33;;;;;;;6.72;100.00;100370.19;5029175;28;20035;-60
2024/01/01 11:01:52;;;;;;;17.88;3.92;;;;;;;6.75;100.00;100364.69;5031520;28;20068;-60
2024/01/01 11:04:22;;;;;;;19.33;3.78;;;;;;;6.76;100.00;100378.72;5034289;28;20394;-61
2024/01/01 11:06:47;;;;;;;14.82;3.75;;;;;;;6.75;100.00;100369.97;5032713;28;20398;-61
2024/01/01 11:09:19;;;;;;;18.67;3.30;;;;;;;6.74;100.00;100365.63;5039293;28;20025;-60
2024/01/01 11:11:49;;;;;;;13.98;3.42;;;;;;;6.75;100.00;100375.25;5034761;28;20052;-61
2024/01/01 11:14:24;;;;;;;16.33;3.58;;;;;;;6.77;100.00;100391.00;5035432;28;20398;-60
2024/01/01 11:16:51;;;;;;;16.27;3.72;;;;;;;6.80;100.00;100375.78;5029910;28;20024;-60
2024/01/01 11:19:41;;;;;;;18.25;3.65;;;;;;;6.91;100.00;100368.91;5034655;28;20029;-60